createdAt,value
2019-05-06T00:00:35.971Z,6.07
2019-05-06T00:02:21.702Z,6.08
2019-05-06T00:03:29.335Z,6.01
2019-05-06T00:05:17.155Z,5.91
2019-05-06T00:06:16.114Z,5.94
2019-05-06T00:08:09.516Z,5.98
2019-05-06T00:09:09.461Z,6.01
2019-05-06T00:11:04.764Z,5.93
2019-05-06T00:12:04.018Z,5.97
2019-05-06T00:13:04.602Z,5.84
2019-05-06T00:14:03.918Z,5.91
2019-05-06T00:15:03.965Z,5.91
2019-05-06T00:16:03.940Z,5.80
2019-05-06T00:17:03.904Z,5.84
2019-05-06T00:18:04.454Z,5.75
2019-05-06T00:19:04.900Z,5.82
2019-05-06T00:20:04.263Z,5.68
2019-05-06T00:21:04.649Z,5.62
2019-05-06T00:22:04.712Z,5.57
2019-05-06T00:23:04.199Z,5.61
2019-05-06T00:24:03.921Z,5.61
2019-05-06T00:25:05.238Z,5.54
2019-05-06T00:26:04.003Z,5.57
2019-05-06T00:27:11.526Z,5.50
2019-05-06T00:28:56.223Z,5.47
2019-05-06T00:29:56.170Z,5.50
2019-05-06T00:31:49.690Z,5.44
2019-05-06T00:32:49.639Z,5.43
2019-05-06T00:34:44.517Z,5.44
2019-05-06T00:35:45.008Z,5.47
2019-05-06T00:36:44.494Z,5.41
2019-05-06T00:37:53.606Z,5.35
2019-05-06T00:39:45.763Z,5.33
2019-05-06T00:40:45.599Z,5.33
2019-05-06T00:42:39.014Z,5.26
2019-05-06T00:43:39.006Z,5.26
2019-05-06T00:45:34.142Z,5.20
2019-05-06T00:46:34.264Z,5.25
2019-05-06T00:48:18.193Z,5.23
2019-05-06T00:49:25.842Z,5.28
2019-05-06T00:51:19.337Z,5.25
2019-05-06T00:52:23.931Z,5.18
2019-05-06T00:54:14.334Z,5.18
2019-05-06T00:55:13.745Z,5.17
2019-05-06T00:57:06.081Z,5.17
2019-05-06T00:57:58.319Z,5.17
2019-05-06T00:59:53.957Z,5.18
2019-05-06T01:00:53.768Z,5.23
2019-05-06T01:02:47.320Z,5.11
2019-05-06T01:03:47.260Z,5.20
2019-05-06T01:05:44.279Z,5.08
2019-05-06T01:06:44.089Z,5.02
2019-05-06T01:08:37.725Z,5.00
2019-05-06T01:09:36.146Z,4.92
2019-05-06T01:10:44.950Z,4.99
2019-05-06T01:12:29.146Z,4.97
2019-05-06T01:13:29.076Z,4.92
2019-05-06T01:15:31.537Z,4.96
2019-05-06T01:16:31.787Z,4.96
2019-05-06T01:18:21.452Z,4.93
2019-05-06T01:19:16.383Z,4.96
2019-05-06T01:21:19.325Z,4.93
2019-05-06T01:22:09.722Z,4.90
2019-05-06T01:24:04.237Z,4.90
2019-05-06T01:25:03.967Z,4.86
2019-05-06T01:27:00.060Z,4.86
2019-05-06T01:28:04.375Z,4.82
2019-05-06T01:29:49.913Z,4.78
2019-05-06T01:30:49.864Z,4.77
2019-05-06T01:32:43.666Z,4.80
2019-05-06T01:33:45.171Z,4.80
2019-05-06T01:35:36.630Z,4.77
2019-05-06T01:36:36.588Z,4.77
2019-05-06T01:37:36.574Z,4.73
2019-05-06T01:38:36.602Z,4.75
2019-05-06T01:39:36.558Z,4.77
2019-05-06T01:40:36.543Z,4.73
2019-05-06T01:41:37.539Z,4.75
2019-05-06T01:42:36.523Z,4.77
2019-05-06T01:43:38.508Z,4.75
2019-05-06T01:44:36.504Z,4.74
2019-05-06T01:45:36.490Z,4.77
2019-05-06T01:46:36.480Z,4.77
2019-05-06T01:47:36.479Z,4.84
2019-05-06T01:48:38.591Z,4.75
2019-05-06T01:49:36.451Z,4.74
2019-05-06T01:51:29.827Z,4.75
2019-05-06T01:52:29.775Z,4.82
2019-05-06T01:54:24.909Z,4.74
2019-05-06T01:55:23.963Z,4.74
2019-05-06T01:57:18.792Z,4.66
2019-05-06T01:58:18.744Z,4.67
2019-05-06T02:00:13.951Z,4.62
2019-05-06T02:01:14.573Z,4.60
2019-05-06T02:02:14.135Z,4.63
2019-05-06T02:03:12.150Z,4.53
2019-05-06T02:04:13.844Z,4.66
2019-05-06T02:05:13.802Z,4.58
2019-05-06T02:06:14.147Z,4.56
2019-05-06T02:07:14.299Z,4.48
2019-05-06T02:08:13.516Z,4.55
2019-05-06T02:09:13.729Z,4.58
2019-05-06T02:10:14.036Z,4.44
2019-05-06T02:11:12.052Z,4.41
2019-05-06T02:12:13.794Z,4.45
2019-05-06T02:13:14.131Z,4.45
2019-05-06T02:14:13.892Z,4.44
2019-05-06T02:15:12.008Z,4.44
2019-05-06T02:16:14.322Z,4.41
2019-05-06T02:17:14.229Z,4.37
2019-05-06T02:18:13.535Z,4.37
2019-05-06T02:19:11.966Z,4.32
2019-05-06T02:20:13.773Z,4.32
2019-05-06T02:21:13.764Z,4.24
2019-05-06T02:22:13.657Z,4.42
2019-05-06T02:24:05.441Z,4.35
2019-05-06T02:25:05.391Z,4.35
2019-05-06T02:26:58.869Z,4.31
2019-05-06T02:27:58.767Z,4.32
2019-05-06T02:28:58.760Z,4.31
2019-05-06T02:29:58.756Z,4.19
2019-05-06T02:30:58.775Z,4.19
2019-05-06T02:32:15.755Z,4.22
2019-05-06T02:32:58.723Z,4.20
2019-05-06T02:33:58.710Z,4.22
2019-05-06T02:34:58.699Z,4.20
2019-05-06T02:35:58.686Z,4.26
2019-05-06T02:36:58.678Z,4.23
2019-05-06T02:37:58.672Z,4.19
2019-05-06T02:38:59.605Z,4.24
2019-05-06T02:39:58.643Z,4.23
2019-05-06T02:40:58.714Z,4.20
2019-05-06T02:41:58.642Z,4.20
2019-05-06T02:42:58.608Z,4.26
2019-05-06T02:43:58.597Z,4.20
2019-05-06T02:44:58.594Z,4.20
2019-05-06T02:45:58.579Z,4.23
2019-05-06T02:46:58.565Z,4.19
2019-05-06T02:47:58.556Z,4.17
2019-05-06T02:48:58.543Z,4.19
2019-05-06T02:49:58.532Z,4.19
2019-05-06T02:50:58.529Z,4.17
2019-05-06T02:51:58.517Z,4.13
2019-05-06T02:52:58.504Z,4.19
2019-05-06T02:53:58.498Z,4.16
2019-05-06T02:54:58.485Z,4.20
2019-05-06T02:55:58.467Z,4.13
2019-05-06T02:56:58.469Z,4.19
2019-05-06T02:57:58.450Z,4.20
2019-05-06T02:58:58.440Z,4.22
2019-05-06T02:59:58.428Z,4.19
2019-05-06T03:00:58.411Z,4.24
2019-05-06T03:01:58.408Z,4.17
2019-05-06T03:02:58.397Z,4.23
2019-05-06T03:03:58.381Z,4.24
2019-05-06T03:04:58.386Z,4.19
2019-05-06T03:05:58.363Z,4.23
2019-05-06T03:06:58.352Z,4.31
2019-05-06T03:07:58.340Z,4.35
2019-05-06T03:08:58.332Z,4.38
2019-05-06T03:09:58.327Z,4.40
2019-05-06T03:10:58.311Z,4.31
2019-05-06T03:11:58.301Z,4.31
2019-05-06T03:12:58.284Z,4.22
2019-05-06T03:13:58.269Z,4.31
2019-05-06T03:14:58.277Z,4.24
2019-05-06T03:15:58.248Z,4.38
2019-05-06T03:16:58.244Z,4.35
2019-05-06T03:17:58.232Z,4.30
2019-05-06T03:18:58.245Z,4.23
2019-05-06T03:19:58.208Z,4.34
2019-05-06T03:20:58.213Z,4.24
2019-05-06T03:21:58.190Z,4.34
2019-05-06T03:22:58.182Z,4.38
2019-05-06T03:23:58.181Z,4.45
2019-05-06T03:24:58.176Z,4.35
2019-05-06T03:25:58.149Z,4.41
2019-05-06T03:26:58.137Z,4.37
2019-05-06T03:27:58.124Z,4.37
2019-05-06T03:28:58.117Z,4.38
2019-05-06T03:30:56.547Z,4.49
2019-05-06T03:31:56.275Z,4.50
2019-05-06T03:33:23.295Z,4.44
2019-05-06T03:34:16.205Z,4.48
2019-05-06T03:35:07.888Z,4.49
2019-05-06T03:36:06.237Z,4.48
2019-05-06T03:36:56.000Z,4.44
2019-05-06T03:37:53.285Z,4.48
2019-05-06T03:38:53.640Z,4.52
2019-05-06T03:39:52.897Z,4.50
2019-05-06T03:40:53.718Z,4.44
2019-05-06T03:41:53.711Z,4.42
2019-05-06T03:42:53.897Z,4.35
2019-05-06T03:43:54.411Z,4.35
2019-05-06T03:44:53.283Z,4.45
2019-05-06T03:45:53.652Z,4.48
2019-05-06T03:46:53.890Z,4.48
2019-05-06T03:47:54.062Z,4.45
2019-05-06T03:50:06.882Z,4.34
2019-05-06T03:51:04.272Z,4.41
2019-05-06T03:52:03.804Z,4.45
2019-05-06T03:53:03.857Z,4.38
2019-05-06T03:54:03.781Z,4.31
2019-05-06T03:55:04.255Z,4.28
2019-05-06T03:56:03.756Z,4.30
2019-05-06T03:57:10.359Z,4.28
2019-05-06T03:58:04.024Z,4.23
2019-05-06T03:59:03.726Z,4.24
2019-05-06T04:00:04.950Z,4.23
2019-05-06T04:01:03.949Z,4.20
2019-05-06T04:02:05.308Z,4.22
2019-05-06T04:03:03.690Z,4.22
2019-05-06T04:04:04.000Z,4.14
2019-05-06T04:05:04.300Z,4.17
2019-05-06T04:06:13.842Z,4.14
2019-05-06T04:07:03.653Z,4.14
2019-05-06T04:08:07.370Z,4.16
2019-05-06T04:09:05.621Z,4.17
2019-05-06T04:10:04.012Z,4.05
2019-05-06T04:11:05.367Z,4.08
2019-05-06T04:12:03.788Z,4.02
2019-05-06T04:13:04.316Z,4.14
2019-05-06T04:14:06.364Z,4.06
2019-05-06T04:15:04.173Z,4.13
2019-05-06T04:16:05.351Z,4.08
2019-05-06T04:17:05.364Z,4.04
2019-05-06T04:18:03.992Z,4.01
2019-05-06T04:19:05.369Z,3.99
2019-05-06T04:20:04.163Z,4.02
2019-05-06T04:21:03.881Z,3.98
2019-05-06T04:22:05.367Z,3.94
2019-05-06T04:23:06.196Z,3.91
2019-05-06T04:24:05.356Z,3.92
2019-05-06T04:25:05.357Z,3.94
2019-05-06T04:26:05.359Z,3.98
2019-05-06T04:27:03.439Z,3.96
2019-05-06T04:28:05.375Z,3.94
2019-05-06T04:29:05.364Z,3.86
2019-05-06T04:30:04.643Z,3.86
2019-05-06T04:31:05.364Z,3.84
2019-05-06T04:32:04.875Z,3.87
2019-05-06T04:33:04.857Z,3.91
2019-05-06T04:34:12.675Z,3.86
2019-05-06T04:35:04.917Z,3.95
2019-05-06T04:36:13.169Z,3.91
2019-05-06T04:37:57.859Z,3.88
2019-05-06T04:38:56.800Z,3.86
2019-05-06T04:40:53.529Z,3.96
2019-05-06T04:41:53.621Z,3.88
2019-05-06T04:43:44.267Z,3.99
2019-05-06T04:44:46.653Z,3.96
2019-05-06T04:45:44.208Z,3.91
2019-05-06T04:47:45.384Z,4.08
2019-05-06T04:48:37.662Z,4.06
2019-05-06T04:50:38.838Z,4.12
2019-05-06T04:51:38.716Z,4.14
2019-05-06T04:53:27.117Z,4.16
2019-05-06T04:54:26.548Z,4.22
2019-05-06T04:56:17.792Z,4.19
2019-05-06T04:57:17.772Z,4.26
2019-05-06T04:59:13.654Z,4.37
2019-05-06T05:00:13.043Z,4.40
2019-05-06T05:02:04.606Z,4.49
2019-05-06T05:03:04.591Z,4.41
2019-05-06T05:04:57.988Z,4.44
2019-05-06T05:05:59.965Z,4.49
2019-05-06T05:07:53.028Z,4.56
2019-05-06T05:08:53.166Z,4.52
2019-05-06T05:10:46.248Z,4.56
2019-05-06T05:11:46.202Z,4.59
2019-05-06T05:13:39.642Z,4.62
2019-05-06T05:14:39.621Z,4.63
2019-05-06T05:15:41.681Z,4.66
2019-05-06T05:16:39.634Z,4.66
2019-05-06T05:17:39.581Z,4.66
2019-05-06T05:18:39.583Z,4.66
2019-05-06T05:19:39.562Z,4.67
2019-05-06T05:20:46.322Z,4.74
2019-05-06T05:21:39.538Z,4.73
2019-05-06T05:22:39.530Z,4.75
2019-05-06T05:23:39.521Z,4.77
2019-05-06T05:24:39.513Z,4.78
2019-05-06T05:25:39.502Z,4.80
2019-05-06T05:26:39.491Z,4.82
2019-05-06T05:27:39.479Z,4.80
2019-05-06T05:28:39.472Z,4.89
2019-05-06T05:29:39.456Z,4.80
2019-05-06T05:30:39.452Z,4.86
2019-05-06T05:31:48.597Z,4.86
2019-05-06T05:33:32.998Z,4.96
2019-05-06T05:34:39.990Z,4.93
2019-05-06T05:36:26.326Z,4.97
2019-05-06T05:37:26.266Z,4.94
2019-05-06T05:39:24.747Z,5.07
2019-05-06T05:40:22.675Z,5.04
2019-05-06T05:42:19.104Z,5.10
2019-05-06T05:43:16.062Z,5.12
2019-05-06T05:45:12.713Z,5.20
2019-05-06T05:46:12.489Z,5.10
2019-05-06T05:48:04.063Z,5.08
2019-05-06T05:49:04.014Z,5.07
2019-05-06T05:50:03.984Z,5.20
2019-05-06T05:51:03.972Z,5.10
2019-05-06T05:52:03.966Z,5.07
2019-05-06T05:53:03.956Z,5.14
2019-05-06T05:54:03.949Z,5.08
2019-05-06T05:55:04.495Z,5.11
2019-05-06T05:56:03.919Z,5.08
2019-05-06T05:57:03.916Z,5.11
2019-05-06T05:58:03.898Z,5.25
2019-05-06T05:59:03.886Z,5.20
2019-05-06T06:00:04.158Z,5.26
2019-05-06T06:01:04.261Z,5.23
2019-05-06T06:02:04.107Z,5.28
2019-05-06T06:03:06.865Z,5.30
2019-05-06T06:04:03.831Z,5.28
2019-05-06T06:05:03.822Z,5.35
2019-05-06T06:06:03.815Z,5.41
2019-05-06T06:07:03.806Z,5.29
2019-05-06T06:08:03.797Z,5.46
2019-05-06T06:09:03.785Z,5.47
2019-05-06T06:10:03.775Z,5.48
2019-05-06T06:11:04.375Z,5.50
2019-05-06T06:12:03.756Z,5.59
2019-05-06T06:13:03.743Z,5.56
2019-05-06T06:14:03.754Z,5.59
2019-05-06T06:15:03.734Z,5.65
2019-05-06T06:16:03.715Z,5.53
2019-05-06T06:17:03.702Z,5.72
2019-05-06T06:18:03.697Z,5.69
2019-05-06T06:19:03.708Z,5.66
2019-05-06T06:20:03.670Z,5.72
2019-05-06T06:21:16.959Z,5.68
2019-05-06T06:22:03.647Z,5.72
2019-05-06T06:23:03.641Z,5.82
2019-05-06T06:24:03.631Z,5.75
2019-05-06T06:25:04.381Z,5.86
2019-05-06T06:26:04.016Z,5.75
2019-05-06T06:27:03.604Z,5.79
2019-05-06T06:28:03.591Z,5.87
2019-05-06T06:29:03.582Z,5.80
2019-05-06T06:30:03.571Z,5.84
2019-05-06T06:31:03.558Z,5.90
2019-05-06T06:32:03.556Z,5.87
2019-05-06T06:33:03.540Z,5.90
2019-05-06T06:34:03.535Z,5.89
2019-05-06T06:35:10.807Z,6.02
2019-05-06T06:36:03.513Z,6.09
2019-05-06T06:37:56.938Z,6.16
2019-05-06T06:38:56.899Z,6.12
2019-05-06T06:40:53.563Z,6.19
2019-05-06T06:41:51.892Z,6.20
2019-05-06T06:43:43.878Z,6.20
2019-05-06T06:44:43.742Z,6.19
2019-05-06T06:46:37.123Z,6.27
2019-05-06T06:47:37.079Z,6.39
2019-05-06T06:49:43.194Z,6.42
2019-05-06T06:50:30.428Z,6.46
2019-05-06T06:52:23.813Z,6.56
2019-05-06T06:53:23.772Z,6.52
2019-05-06T06:55:18.585Z,6.66
2019-05-06T06:56:17.124Z,6.74
2019-05-06T06:58:11.988Z,6.75
2019-05-06T06:59:12.671Z,6.79
2019-05-06T07:01:13.045Z,6.93
2019-05-06T07:02:04.681Z,7.05
2019-05-06T07:04:35.683Z,7.23
2019-05-06T07:05:02.399Z,7.23
2019-05-06T07:08:34.099Z,7.53
2019-05-06T07:09:23.835Z,7.63
2019-05-06T08:00:32.696Z,10.48
2019-05-06T08:01:33.234Z,10.60
2019-05-06T08:04:56.858Z,10.89
2019-05-06T08:05:58.825Z,11.04
2019-05-06T08:10:56.358Z,11.41
2019-05-06T08:11:56.429Z,11.63
2019-05-06T08:14:15.770Z,11.77
2019-05-06T08:14:52.175Z,11.70
2019-05-06T08:19:48.592Z,11.86
2019-05-06T08:20:47.543Z,11.91
2019-05-06T08:22:47.105Z,12.02
2019-05-06T08:23:42.837Z,12.18
2019-05-06T08:26:09.166Z,12.36
2019-05-06T08:26:34.386Z,12.28
2019-05-06T08:28:48.860Z,12.50
2019-05-06T08:29:29.302Z,12.47
2019-05-06T08:36:11.358Z,12.67
2019-05-06T08:37:02.385Z,12.75
2019-05-06T08:42:15.170Z,12.83
2019-05-06T08:42:58.891Z,12.87
2019-05-06T08:48:02.414Z,12.53
2019-05-06T08:48:56.628Z,12.46
2019-05-06T08:53:54.282Z,13.41
2019-05-06T08:54:54.242Z,13.60
2019-05-06T08:56:56.653Z,13.62
2019-05-06T08:57:47.645Z,13.72
2019-05-06T09:01:13.339Z,14.36
2019-05-06T09:02:13.704Z,14.86
2019-05-06T09:04:12.475Z,15.22
2019-05-06T09:05:06.626Z,15.40
2019-05-06T09:06:07.526Z,15.52
2019-05-06T09:07:06.636Z,15.44
2019-05-06T09:08:06.596Z,15.52
2019-05-06T09:09:06.575Z,15.54
2019-05-06T09:10:06.575Z,15.59
2019-05-06T09:11:06.578Z,15.79
2019-05-06T09:12:06.610Z,15.95
2019-05-06T09:13:06.580Z,16.04
2019-05-06T09:14:09.681Z,16.21
2019-05-06T09:15:08.496Z,16.36
2019-05-06T09:16:09.154Z,16.56
2019-05-06T09:17:06.589Z,16.66
2019-05-06T09:18:06.575Z,16.86
2019-05-06T09:19:06.573Z,17.02
2019-05-06T09:20:06.577Z,17.16
2019-05-06T09:21:06.590Z,17.27
2019-05-06T09:22:06.577Z,17.46
2019-05-06T09:23:06.583Z,17.76
2019-05-06T09:24:06.583Z,17.65
2019-05-06T09:25:06.590Z,17.56
2019-05-06T09:26:06.599Z,17.45
2019-05-06T09:27:06.585Z,17.22
2019-05-06T09:28:06.588Z,17.14
2019-05-06T09:29:06.590Z,16.87
2019-05-06T09:30:06.595Z,16.97
2019-05-06T09:34:16.956Z,17.42
2019-05-06T09:35:12.939Z,17.46
2019-05-06T09:37:05.413Z,17.67
2019-05-06T09:38:04.439Z,17.80
2019-05-06T09:41:57.819Z,18.04
2019-05-06T09:42:32.050Z,18.13
2019-05-06T09:47:57.822Z,18.44
2019-05-06T09:48:28.268Z,18.45
2019-05-06T09:51:54.404Z,18.71
2019-05-06T09:52:53.790Z,18.77
2019-05-06T10:01:02.476Z,19.29
2019-05-06T10:01:56.094Z,19.30
2019-05-06T10:03:54.307Z,19.39
2019-05-06T10:04:49.309Z,19.41
2019-05-06T10:08:14.731Z,19.73
2019-05-06T10:09:16.134Z,19.79
2019-05-06T10:11:11.741Z,19.94
2019-05-06T10:12:08.205Z,20.00
2019-05-06T10:17:17.075Z,20.06
2019-05-06T10:18:07.516Z,20.07
2019-05-06T10:19:07.461Z,20.18
2019-05-06T10:25:06.374Z,20.29
2019-05-06T10:25:44.020Z,20.19
2019-05-06T10:29:35.513Z,19.51
2019-05-06T10:30:09.411Z,19.21
2019-05-06T10:32:12.085Z,18.95
2019-05-06T10:33:03.679Z,18.92
2019-05-06T10:35:35.047Z,18.88
2019-05-06T10:35:57.738Z,18.93
2019-05-06T10:37:53.772Z,18.37
2019-05-06T10:38:52.882Z,18.28
2019-05-06T10:43:57.775Z,18.38
2019-05-06T10:44:49.580Z,18.37
2019-05-06T10:46:52.691Z,18.44
2019-05-06T10:47:43.535Z,18.40
2019-05-06T10:49:59.033Z,18.40
2019-05-06T10:50:37.188Z,18.26
2019-05-06T10:51:36.968Z,18.28
2019-05-06T10:52:36.970Z,18.33
2019-05-06T10:53:37.014Z,18.19
2019-05-06T10:54:36.979Z,18.16
2019-05-06T10:55:36.970Z,18.04
2019-05-06T10:56:49.786Z,17.86
2019-05-06T10:57:36.971Z,17.65
2019-05-06T10:58:36.968Z,17.57
2019-05-06T10:59:36.975Z,17.46
2019-05-06T11:00:36.983Z,17.44
2019-05-06T11:01:36.966Z,17.33
2019-05-06T11:02:36.966Z,17.49
2019-05-06T11:03:36.971Z,17.49
2019-05-06T11:04:36.962Z,17.54
2019-05-06T11:05:36.966Z,17.70
2019-05-06T11:06:36.959Z,17.65
2019-05-06T11:07:36.963Z,17.82
2019-05-06T11:08:36.969Z,17.78
2019-05-06T11:09:36.972Z,17.78
2019-05-06T11:10:41.099Z,17.83
2019-05-06T11:11:38.769Z,17.78
2019-05-06T11:12:36.961Z,17.83
2019-05-06T11:13:36.962Z,17.82
2019-05-06T11:14:36.981Z,17.67
2019-05-06T11:15:36.964Z,17.71
2019-05-06T11:16:36.955Z,17.49
2019-05-06T11:17:36.956Z,17.42
2019-05-06T11:18:36.950Z,17.44
2019-05-06T11:19:36.957Z,17.31
2019-05-06T11:20:36.952Z,17.12
2019-05-06T11:21:36.949Z,17.09
2019-05-06T11:22:36.952Z,16.99
2019-05-06T11:23:36.939Z,16.91
2019-05-06T11:24:36.947Z,16.71
2019-05-06T11:25:37.793Z,16.60
2019-05-06T11:26:36.943Z,16.43
2019-05-06T11:27:39.538Z,16.39
2019-05-06T11:28:36.933Z,16.20
2019-05-06T11:29:36.930Z,16.17
2019-05-06T11:30:36.929Z,16.05
2019-05-06T11:31:36.924Z,16.01
2019-05-06T11:32:36.924Z,15.88
2019-05-06T11:33:36.917Z,15.79
2019-05-06T11:34:36.916Z,15.64
2019-05-06T11:35:36.920Z,15.70
2019-05-06T11:36:37.669Z,15.77
2019-05-06T11:37:46.964Z,15.82
2019-05-06T11:38:36.916Z,15.84
2019-05-06T11:39:36.908Z,15.88
2019-05-06T11:40:36.908Z,15.92
2019-05-06T11:41:36.901Z,15.98
2019-05-06T11:42:36.899Z,15.88
2019-05-06T11:43:36.895Z,15.82
2019-05-06T11:44:36.895Z,15.95
2019-05-06T11:45:36.884Z,16.02
2019-05-06T11:46:36.882Z,16.01
2019-05-06T11:47:36.883Z,16.01
2019-05-06T11:48:36.876Z,15.90
2019-05-06T11:49:36.873Z,15.92
2019-05-06T11:50:36.874Z,15.90
2019-05-06T11:51:36.871Z,15.97
2019-05-06T11:52:36.876Z,15.79
2019-05-06T11:53:36.864Z,15.80
2019-05-06T11:54:36.860Z,15.92
2019-05-06T11:55:38.874Z,15.95
2019-05-06T11:56:47.917Z,15.97
2019-05-06T11:57:36.845Z,15.97
2019-05-06T11:58:36.854Z,15.97
2019-05-06T11:59:36.840Z,15.97
2019-05-06T12:00:36.840Z,15.84
2019-05-06T12:01:36.846Z,15.75
2019-05-06T12:02:36.833Z,15.77
2019-05-06T12:03:36.824Z,15.67
2019-05-06T12:04:36.821Z,15.70
2019-05-06T12:05:36.823Z,15.64
2019-05-06T12:06:36.818Z,15.57
2019-05-06T12:07:36.822Z,15.33
2019-05-06T12:08:36.811Z,15.31
2019-05-06T12:09:36.840Z,15.21
2019-05-06T12:10:36.798Z,15.19
2019-05-06T12:11:36.850Z,15.17
2019-05-06T12:12:36.796Z,15.09
2019-05-06T12:13:38.261Z,15.07
2019-05-06T12:14:36.785Z,14.94
2019-05-06T12:15:36.781Z,15.10
2019-05-06T12:16:36.837Z,15.11
2019-05-06T12:17:36.771Z,15.17
2019-05-06T12:18:36.771Z,15.31
2019-05-06T12:19:36.765Z,15.46
2019-05-06T12:20:36.759Z,15.52
2019-05-06T12:21:36.776Z,15.43
2019-05-06T12:22:36.766Z,15.42
2019-05-06T12:23:36.803Z,15.68
2019-05-06T12:24:36.739Z,15.82
2019-05-06T12:25:36.742Z,15.97
2019-05-06T12:26:36.739Z,16.12
2019-05-06T12:27:36.736Z,16.24
2019-05-06T12:28:36.734Z,16.31
2019-05-06T12:29:38.364Z,16.41
2019-05-06T12:30:36.723Z,16.42
2019-05-06T12:31:36.727Z,16.46
2019-05-06T12:32:36.723Z,16.42
2019-05-06T12:33:36.718Z,16.39
2019-05-06T12:34:36.714Z,16.38
2019-05-06T12:35:36.738Z,16.32
2019-05-06T12:36:36.708Z,16.28
2019-05-06T12:37:36.705Z,16.26
2019-05-06T12:38:36.708Z,16.35
2019-05-06T12:39:36.702Z,16.32
2019-05-06T12:40:36.698Z,16.39
2019-05-06T12:41:36.699Z,16.28
2019-05-06T12:42:36.695Z,16.24
2019-05-06T12:43:36.697Z,16.12
2019-05-06T12:44:36.686Z,16.05
2019-05-06T12:45:36.697Z,16.13
2019-05-06T12:46:36.692Z,16.17
2019-05-06T12:47:36.692Z,16.09
2019-05-06T12:48:36.676Z,16.17
2019-05-06T12:49:36.678Z,16.24
2019-05-06T12:50:36.670Z,16.35
2019-05-06T12:51:36.669Z,16.33
2019-05-06T12:52:36.666Z,16.43
2019-05-06T12:53:36.663Z,16.58
2019-05-06T12:54:36.664Z,16.57
2019-05-06T12:55:36.659Z,16.74
2019-05-06T12:56:36.651Z,16.79
2019-05-06T12:57:36.658Z,16.83
2019-05-06T12:58:36.652Z,16.86
2019-05-06T12:59:36.660Z,16.89
2019-05-06T13:00:36.692Z,16.89
2019-05-06T13:01:36.647Z,17.01
2019-05-06T13:02:36.660Z,17.02
2019-05-06T13:03:36.638Z,17.09
2019-05-06T13:04:54.600Z,16.97
2019-05-06T13:05:36.640Z,16.79
2019-05-06T13:06:36.629Z,16.87
2019-05-06T13:07:36.634Z,16.79
2019-05-06T13:08:53.823Z,16.57
2019-05-06T13:09:36.622Z,16.57
2019-05-06T13:10:36.623Z,16.58
2019-05-06T13:11:36.625Z,16.58
2019-05-06T13:12:36.621Z,16.58
2019-05-06T13:13:36.638Z,16.46
2019-05-06T13:14:36.616Z,16.49
2019-05-06T13:15:36.615Z,16.42
2019-05-06T13:16:36.619Z,16.33
2019-05-06T13:17:36.604Z,16.36
2019-05-06T13:18:36.604Z,16.35
2019-05-06T13:19:36.605Z,16.26
2019-05-06T13:20:36.606Z,16.15
2019-05-06T13:21:36.592Z,16.12
2019-05-06T13:22:36.594Z,16.23
2019-05-06T13:23:36.594Z,16.16
2019-05-06T13:24:36.589Z,16.05
2019-05-06T13:25:36.599Z,16.13
2019-05-06T13:26:36.594Z,16.10
2019-05-06T13:27:36.578Z,16.09
2019-05-06T13:28:36.573Z,16.10
2019-05-06T13:29:36.587Z,16.02
2019-05-06T13:30:36.575Z,16.12
2019-05-06T13:31:36.568Z,16.01
2019-05-06T13:32:36.561Z,16.10
2019-05-06T13:33:36.643Z,16.04
2019-05-06T13:34:36.566Z,15.97
2019-05-06T13:35:36.551Z,16.04
2019-05-06T13:36:36.548Z,16.02
2019-05-06T13:37:36.546Z,16.00
2019-05-06T13:38:36.534Z,16.05
2019-05-06T13:39:36.606Z,15.83
2019-05-06T13:40:51.276Z,15.80
2019-05-06T13:41:36.534Z,15.65
2019-05-06T13:42:36.536Z,15.61
2019-05-06T13:43:36.517Z,15.61
2019-05-06T13:44:36.511Z,15.47
2019-05-06T13:45:36.515Z,15.57
2019-05-06T13:46:36.510Z,15.51
2019-05-06T13:47:36.501Z,15.51
2019-05-06T13:48:36.516Z,15.47
2019-05-06T13:49:36.495Z,15.51
2019-05-06T13:50:38.403Z,15.44
2019-05-06T13:51:36.486Z,15.31
2019-05-06T13:52:36.489Z,15.15
2019-05-06T13:53:39.699Z,15.17
2019-05-06T13:54:36.508Z,15.14
2019-05-06T13:55:36.478Z,15.25
2019-05-06T13:56:36.469Z,15.18
2019-05-06T13:57:39.221Z,15.18
2019-05-06T13:58:36.462Z,15.19
2019-05-06T13:59:37.169Z,15.11
2019-05-06T14:00:36.442Z,15.18
2019-05-06T14:01:36.447Z,15.09
2019-05-06T14:02:36.457Z,14.94
2019-05-06T14:03:36.436Z,14.94
2019-05-06T14:04:36.428Z,14.92
2019-05-06T14:05:36.425Z,14.65
2019-05-06T14:06:36.426Z,14.58
2019-05-06T14:07:36.411Z,14.51
2019-05-06T14:08:36.417Z,14.65
2019-05-06T14:09:40.267Z,14.69
2019-05-06T14:10:36.398Z,14.70
2019-05-06T14:11:36.394Z,14.85
2019-05-06T14:12:36.392Z,14.92
2019-05-06T14:13:36.386Z,15.04
2019-05-06T14:14:36.378Z,15.18
2019-05-06T14:15:36.372Z,15.22
2019-05-06T14:16:36.369Z,15.27
2019-05-06T14:17:36.366Z,15.28
2019-05-06T14:18:37.800Z,15.31
2019-05-06T14:19:36.359Z,15.28
2019-05-06T14:20:36.375Z,15.28
2019-05-06T14:21:36.347Z,15.28
2019-05-06T14:22:36.369Z,15.18
2019-05-06T14:23:36.338Z,15.10
2019-05-06T14:24:36.334Z,15.06
2019-05-06T14:25:36.327Z,15.06
2019-05-06T14:26:36.318Z,14.97
2019-05-06T14:27:36.319Z,15.09
2019-05-06T14:28:36.337Z,15.06
2019-05-06T14:29:36.309Z,14.97
2019-05-06T14:30:36.301Z,14.97
2019-05-06T14:31:36.296Z,14.92
2019-05-06T14:32:36.303Z,14.99
2019-05-06T14:33:36.290Z,14.94
2019-05-06T14:34:36.281Z,15.07
2019-05-06T14:35:36.292Z,15.06
2019-05-06T14:36:36.265Z,15.17
2019-05-06T14:37:36.267Z,15.15
2019-05-06T14:38:36.264Z,15.09
2019-05-06T14:39:52.174Z,15.14
2019-05-06T14:40:36.251Z,15.17
2019-05-06T14:41:36.245Z,15.21
2019-05-06T14:42:36.250Z,15.14
2019-05-06T14:43:36.240Z,15.15
2019-05-06T14:44:36.247Z,15.15
2019-05-06T14:45:36.236Z,15.19
2019-05-06T14:46:36.213Z,15.17
2019-05-06T14:47:36.247Z,15.17
2019-05-06T14:48:36.210Z,15.14
2019-05-06T14:49:36.203Z,15.07
2019-05-06T14:50:45.247Z,15.06
2019-05-06T14:51:36.249Z,15.02
2019-05-06T14:52:36.184Z,15.04
2019-05-06T14:53:36.296Z,14.99
2019-05-06T14:57:59.480Z,14.81
2019-05-06T14:58:42.829Z,14.77
2019-05-06T15:00:37.514Z,14.68
2019-05-06T15:01:37.359Z,14.72
2019-05-06T15:03:42.939Z,14.82
2019-05-06T15:04:32.506Z,14.84
2019-05-06T15:06:24.649Z,14.68
2019-05-06T15:07:24.866Z,14.70
2019-05-06T15:10:50.829Z,14.70
2019-05-06T15:11:50.811Z,14.68
2019-05-06T15:13:58.034Z,14.70
2019-05-06T15:14:44.310Z,14.69
2019-05-06T15:16:46.695Z,14.43
2019-05-06T15:17:37.899Z,14.40
2019-05-06T15:19:33.514Z,14.37
2019-05-06T15:20:34.103Z,14.33
2019-05-06T15:22:38.470Z,14.40
2019-05-06T15:23:25.099Z,14.35
2019-05-06T15:26:58.454Z,14.30
2019-05-06T15:27:53.135Z,14.22
2019-05-06T15:29:48.748Z,14.22
2019-05-06T15:30:46.321Z,14.20
2019-05-06T15:34:26.534Z,13.96
2019-05-06T15:35:12.812Z,14.04
2019-05-06T15:37:05.617Z,13.96
2019-05-06T15:38:05.572Z,13.97
2019-05-06T15:39:06.076Z,13.95
2019-05-06T15:40:05.560Z,13.97
2019-05-06T15:41:05.560Z,14.00
2019-05-06T15:42:05.549Z,13.89
2019-05-06T15:43:05.542Z,13.95
2019-05-06T15:44:05.538Z,13.92
2019-05-06T15:45:05.529Z,13.99
2019-05-06T15:46:05.520Z,13.92
2019-05-06T15:47:05.517Z,13.83
2019-05-06T15:48:05.507Z,13.85
2019-05-06T15:49:05.507Z,13.85
2019-05-06T15:50:06.078Z,13.87
2019-05-06T15:51:05.493Z,13.89
2019-05-06T15:52:06.085Z,13.85
2019-05-06T15:53:05.480Z,13.83
2019-05-06T15:54:05.470Z,13.89
2019-05-06T15:55:05.482Z,13.89
2019-05-06T15:56:05.494Z,13.81
2019-05-06T15:57:05.452Z,13.86
2019-05-06T15:58:05.450Z,13.81
2019-05-06T15:59:05.438Z,13.79
2019-05-06T16:00:05.431Z,13.75
2019-05-06T16:01:05.425Z,13.70
2019-05-06T16:02:05.415Z,13.65
2019-05-06T16:03:05.416Z,13.60
2019-05-06T16:04:05.410Z,13.65
2019-05-06T16:05:11.575Z,13.53
2019-05-06T16:06:05.400Z,13.60
2019-05-06T16:07:05.387Z,13.49
2019-05-06T16:08:05.389Z,13.59
2019-05-06T16:09:05.371Z,13.50
2019-05-06T16:10:05.368Z,13.65
2019-05-06T16:11:05.354Z,13.62
2019-05-06T16:12:05.355Z,13.52
2019-05-06T16:13:05.346Z,13.46
2019-05-06T16:14:05.337Z,13.54
2019-05-06T16:15:05.335Z,13.47
2019-05-06T16:16:07.066Z,13.53
2019-05-06T16:17:05.315Z,13.50
2019-05-06T16:18:05.310Z,13.38
2019-05-06T16:19:05.302Z,13.44
2019-05-06T16:20:05.295Z,13.42
2019-05-06T16:21:05.286Z,13.47
2019-05-06T16:22:05.283Z,13.35
2019-05-06T16:23:05.277Z,13.30
2019-05-06T16:24:05.272Z,13.25
2019-05-06T16:25:05.267Z,13.27
2019-05-06T16:26:05.256Z,13.25
2019-05-06T16:27:05.242Z,13.23
2019-05-06T16:28:05.241Z,13.20
2019-05-06T16:29:05.235Z,13.16
2019-05-06T16:30:05.228Z,13.12
2019-05-06T16:31:05.234Z,13.16
2019-05-06T16:32:05.226Z,13.16